createdAt,value
2023-03-21T00:00:43.518Z,3.80
2023-03-21T00:03:12.167Z,4.53
2023-03-21T00:05:41.069Z,4.07
2023-03-21T00:08:08.577Z,4.30
2023-03-21T00:10:42.747Z,4.00
2023-03-21T00:13:11.345Z,4.10
2023-03-21T00:15:44.238Z,4.60
2023-03-21T00:18:22.465Z,4.63
2023-03-21T00:21:12.670Z,4.60
2023-03-21T00:23:43.533Z,4.87
2023-03-21T00:26:10.658Z,4.47
2023-03-21T00:28:38.050Z,4.57
2023-03-21T00:31:05.335Z,4.40
2023-03-21T00:33:33.748Z,5.07
2023-03-21T00:36:05.150Z,4.93
2023-03-21T00:38:33.975Z,4.60
2023-03-21T00:41:07.822Z,4.77
2023-03-21T00:43:42.183Z,5.40
2023-03-21T00:46:09.658Z,4.77
2023-03-21T00:48:38.180Z,4.70
2023-03-21T00:51:13.011Z,5.00
2023-03-21T00:53:40.073Z,5.83
2023-03-21T00:56:07.447Z,4.80
2023-03-21T00:58:34.659Z,5.03
2023-03-21T01:01:01.816Z,5.47
2023-03-21T01:03:29.831Z,5.60
2023-03-21T01:05:58.254Z,4.73
2023-03-21T01:08:32.995Z,6.50
2023-03-21T01:11:03.296Z,5.90
2023-03-21T01:13:31.067Z,5.30
2023-03-21T01:15:59.363Z,6.13
2023-03-21T01:18:27.544Z,6.03
2023-03-21T01:20:55.689Z,5.50
2023-03-21T01:23:24.469Z,5.00
2023-03-21T01:25:53.109Z,6.20
2023-03-21T01:28:20.221Z,6.20
2023-03-21T01:30:47.507Z,5.57
2023-03-21T01:33:14.977Z,6.57
2023-03-21T01:35:50.285Z,6.50
2023-03-21T01:38:18.864Z,5.33
2023-03-21T01:40:48.015Z,6.57
2023-03-21T01:43:24.917Z,6.27
2023-03-21T01:46:22.410Z,6.37
2023-03-21T01:49:27.010Z,5.90
2023-03-21T01:52:12.261Z,6.33
2023-03-21T01:54:42.037Z,6.10
2023-03-21T01:57:12.553Z,6.83
2023-03-21T01:59:41.318Z,6.30
2023-03-21T02:02:25.719Z,7.27
2023-03-21T02:05:20.371Z,5.83
2023-03-21T02:07:47.941Z,6.23
2023-03-21T02:10:17.762Z,6.20
2023-03-21T02:12:50.506Z,5.67
2023-03-21T02:15:17.657Z,6.23
2023-03-21T02:18:10.649Z,7.03
2023-03-21T02:20:55.576Z,6.20
2023-03-21T02:23:42.267Z,6.67
2023-03-21T02:26:23.357Z,6.43
2023-03-21T02:28:56.615Z,6.63
2023-03-21T02:31:26.340Z,6.30
2023-03-21T02:34:11.783Z,5.80
2023-03-21T02:36:57.535Z,6.57
2023-03-21T02:39:26.847Z,9.47
2023-03-21T02:41:57.972Z,6.40
2023-03-21T02:44:35.913Z,7.30
2023-03-21T02:47:06.744Z,6.80
2023-03-21T02:49:41.471Z,5.93
2023-03-21T02:52:18.705Z,7.00
2023-03-21T02:54:50.424Z,5.30
2023-03-21T02:57:23.941Z,5.87
2023-03-21T02:59:58.523Z,6.60
2023-03-21T03:02:35.710Z,6.07
2023-03-21T03:05:06.469Z,6.47
2023-03-21T03:07:41.601Z,6.47
2023-03-21T03:10:16.247Z,6.50
2023-03-21T03:12:47.722Z,7.23
2023-03-21T03:15:20.125Z,7.33
2023-03-21T03:17:50.325Z,5.70
2023-03-21T03:20:35.292Z,5.30
2023-03-21T03:23:08.540Z,6.10
2023-03-21T03:25:43.037Z,6.63
2023-03-21T03:28:15.636Z,5.90
2023-03-21T03:30:54.250Z,6.83
2023-03-21T03:33:30.615Z,6.90
2023-03-21T03:36:05.419Z,8.37
2023-03-21T03:38:37.594Z,6.73
2023-03-21T03:41:07.818Z,7.57
2023-03-21T03:43:45.336Z,7.13
2023-03-21T03:46:14.286Z,6.90
2023-03-21T03:48:47.469Z,6.90
2023-03-21T03:51:17.049Z,6.47
2023-03-21T03:54:10.567Z,7.27
2023-03-21T03:56:37.960Z,6.93
2023-03-21T03:59:05.876Z,7.20
2023-03-21T04:01:49.439Z,6.60
2023-03-21T04:04:16.671Z,7.30
2023-03-21T04:06:44.782Z,5.60
2023-03-21T04:09:20.925Z,6.03
2023-03-21T04:11:51.033Z,4.97
2023-03-21T04:14:18.110Z,5.47
2023-03-21T04:16:46.134Z,5.80
2023-03-21T04:19:14.366Z,6.73
2023-03-21T04:21:41.472Z,6.30
2023-03-21T04:24:09.137Z,6.30
2023-03-21T04:26:37.878Z,6.17
2023-03-21T04:29:23.667Z,6.37
2023-03-21T04:32:16.572Z,5.53
2023-03-21T04:34:49.545Z,5.73
2023-03-21T04:37:18.068Z,5.70
2023-03-21T04:39:46.589Z,6.07
2023-03-21T04:42:15.733Z,6.90
2023-03-21T04:44:42.815Z,6.27
2023-03-21T04:47:09.892Z,6.00
2023-03-21T04:49:37.001Z,7.00
2023-03-21T04:52:04.201Z,6.90
2023-03-21T04:54:31.583Z,5.70
2023-03-21T04:56:59.021Z,6.30
2023-03-21T04:59:29.116Z,5.90
2023-03-21T05:01:56.271Z,6.73
2023-03-21T05:04:24.199Z,5.60
2023-03-21T05:06:51.329Z,6.00
2023-03-21T05:09:18.412Z,6.10
2023-03-21T05:11:45.569Z,5.03
2023-03-21T05:14:15.825Z,5.77
2023-03-21T05:16:44.745Z,6.47
2023-03-21T05:19:12.183Z,6.40
2023-03-21T05:21:40.265Z,5.27
2023-03-21T05:24:10.148Z,4.93
2023-03-21T05:26:38.110Z,5.40
2023-03-21T05:29:12.908Z,6.13
2023-03-21T05:31:40.886Z,5.70
2023-03-21T05:34:12.956Z,6.33
2023-03-21T05:36:40.755Z,6.13
2023-03-21T05:39:10.183Z,6.03
2023-03-21T05:41:41.719Z,6.10
2023-03-21T05:44:09.457Z,7.30
2023-03-21T05:46:38.061Z,5.73
2023-03-21T05:49:06.174Z,6.60
2023-03-21T05:51:34.853Z,7.90
2023-03-21T05:54:01.997Z,7.60
2023-03-21T05:56:29.658Z,6.23
2023-03-21T05:59:01.877Z,6.67
2023-03-21T06:01:31.472Z,6.77
2023-03-21T06:04:08.311Z,7.10
2023-03-21T06:06:37.608Z,6.60
2023-03-21T06:09:04.976Z,6.43
2023-03-21T06:11:33.527Z,7.20
2023-03-21T06:14:19.649Z,8.07
2023-03-21T06:16:58.063Z,6.33
2023-03-21T06:19:25.218Z,6.40
2023-03-21T06:22:09.710Z,6.37
2023-03-21T06:24:39.435Z,6.20
2023-03-21T06:27:06.564Z,6.90
2023-03-21T06:29:46.176Z,5.83
2023-03-21T06:32:13.576Z,7.10
2023-03-21T06:34:41.182Z,7.37
2023-03-21T06:37:11.317Z,7.20
2023-03-21T06:39:38.469Z,6.93
2023-03-21T06:42:06.178Z,6.40
2023-03-21T06:44:33.292Z,6.70
2023-03-21T06:47:04.891Z,6.50
2023-03-21T06:49:32.588Z,6.43
2023-03-21T06:52:07.135Z,8.40
2023-03-21T06:54:35.809Z,6.27
2023-03-21T06:57:10.254Z,8.10
2023-03-21T06:59:38.262Z,6.70
2023-03-21T07:02:10.736Z,6.73
2023-03-21T07:04:42.496Z,7.10
2023-03-21T07:07:15.189Z,6.63
2023-03-21T07:09:43.801Z,7.93
2023-03-21T07:12:11.056Z,7.40
2023-03-21T07:14:58.819Z,7.50
2023-03-21T07:17:26.228Z,8.00
2023-03-21T07:19:53.392Z,7.63
2023-03-21T07:22:20.693Z,7.90
2023-03-21T07:25:02.352Z,7.37
2023-03-21T07:27:31.581Z,8.13
2023-03-21T07:29:58.668Z,7.80
2023-03-21T07:32:25.848Z,8.37
2023-03-21T07:34:53.093Z,6.57
2023-03-21T07:37:20.220Z,8.03
2023-03-21T07:39:48.611Z,8.60
2023-03-21T07:42:16.829Z,7.17
2023-03-21T07:44:45.200Z,7.70
2023-03-21T07:47:12.349Z,8.33
2023-03-21T07:49:39.461Z,7.83
2023-03-21T07:52:07.171Z,8.50
2023-03-21T07:54:34.287Z,7.37
2023-03-21T07:57:02.718Z,8.13
2023-03-21T07:59:30.944Z,8.17
2023-03-21T08:01:58.072Z,8.43
2023-03-21T08:04:25.188Z,8.83
2023-03-21T08:06:52.328Z,8.50
2023-03-21T08:09:19.376Z,8.97
2023-03-21T08:11:46.539Z,10.60
2023-03-21T08:14:14.946Z,7.17
2023-03-21T08:16:42.043Z,9.17
2023-03-21T08:19:09.132Z,9.53
2023-03-21T08:21:36.263Z,9.10
2023-03-21T08:24:03.385Z,8.93
2023-03-21T08:26:30.501Z,10.13
2023-03-21T08:28:57.624Z,9.30
2023-03-21T08:31:26.070Z,9.90
2023-03-21T08:33:53.261Z,8.20
2023-03-21T08:36:20.563Z,9.03
2023-03-21T08:38:47.790Z,7.80
2023-03-21T08:41:15.096Z,9.63
2023-03-21T08:43:42.175Z,9.53
2023-03-21T08:46:09.334Z,10.30
2023-03-21T08:48:37.896Z,10.67
2023-03-21T08:51:05.215Z,10.53
2023-03-21T08:53:32.303Z,9.93
2023-03-21T08:55:59.478Z,10.90
2023-03-21T08:58:26.608Z,10.30
2023-03-21T09:00:53.781Z,12.10
2023-03-21T09:03:20.877Z,11.70
2023-03-21T09:05:49.316Z,11.00
2023-03-21T09:08:16.370Z,12.10
2023-03-21T09:10:43.447Z,11.03
2023-03-21T09:13:10.543Z,10.13
2023-03-21T09:15:38.007Z,10.00
2023-03-21T09:18:05.224Z,11.53
2023-03-21T09:20:32.282Z,10.60
2023-03-21T09:23:00.711Z,10.70
2023-03-21T09:25:27.810Z,10.90
2023-03-21T09:27:54.844Z,10.30
2023-03-21T09:30:24.790Z,8.83
2023-03-21T09:32:53.114Z,8.67
2023-03-21T09:35:20.918Z,8.03
2023-03-21T09:37:48.590Z,9.50
2023-03-21T09:40:19.127Z,10.10
2023-03-21T09:42:51.407Z,10.00
2023-03-21T09:45:21.831Z,8.40
2023-03-21T09:47:49.787Z,8.50
2023-03-21T09:50:18.785Z,8.80
2023-03-21T09:52:47.445Z,9.77
2023-03-21T09:55:18.825Z,8.37
2023-03-21T09:57:47.849Z,6.87
2023-03-21T10:00:18.067Z,7.70
2023-03-21T10:02:46.115Z,7.87
2023-03-21T10:05:17.187Z,8.03
2023-03-21T10:07:45.944Z,6.67
2023-03-21T10:10:15.572Z,7.20
2023-03-21T10:12:45.082Z,7.50
2023-03-21T10:15:15.841Z,7.80
2023-03-21T10:17:44.204Z,7.57
2023-03-21T10:20:14.930Z,7.80
2023-03-21T10:22:43.169Z,7.60
2023-03-21T10:25:14.035Z,7.93
2023-03-21T10:27:41.224Z,6.80
2023-03-21T10:30:20.177Z,7.10
2023-03-21T10:32:47.436Z,7.17
2023-03-21T10:35:14.841Z,7.10
2023-03-21T10:37:42.041Z,7.10
2023-03-21T10:40:15.334Z,7.40
2023-03-21T10:42:42.425Z,7.60
2023-03-21T10:45:14.417Z,7.07
2023-03-21T10:47:42.484Z,8.17
2023-03-21T10:50:13.473Z,7.93
2023-03-21T10:52:45.375Z,7.40
2023-03-21T10:55:18.495Z,7.73
2023-03-21T10:57:46.087Z,7.27
2023-03-21T11:00:19.496Z,7.90
2023-03-21T11:02:48.537Z,7.30
2023-03-21T11:05:21.806Z,6.30
2023-03-21T11:07:49.053Z,6.03
2023-03-21T11:10:26.470Z,6.80
2023-03-21T11:12:56.998Z,6.27
2023-03-21T11:15:29.351Z,7.47
2023-03-21T11:17:56.507Z,7.37
2023-03-21T11:20:24.246Z,7.20
2023-03-21T11:22:55.111Z,8.00
2023-03-21T11:25:23.616Z,7.03
2023-03-21T11:27:51.667Z,6.73
2023-03-21T11:30:21.518Z,6.13
2023-03-21T11:32:51.851Z,6.37
2023-03-21T11:35:20.269Z,6.70
2023-03-21T11:37:50.954Z,7.20
2023-03-21T11:40:22.667Z,5.87
2023-03-21T11:42:50.601Z,6.60
2023-03-21T11:45:19.056Z,6.70
2023-03-21T11:47:46.650Z,6.20
2023-03-21T11:50:19.900Z,6.03
2023-03-21T11:52:51.234Z,5.40
2023-03-21T11:55:31.714Z,6.10
2023-03-21T11:58:13.850Z,5.33
2023-03-21T12:00:48.424Z,5.10
2023-03-21T12:03:24.121Z,5.20
2023-03-21T12:05:54.689Z,4.47
2023-03-21T12:08:28.500Z,5.40
2023-03-21T12:10:59.035Z,4.80
2023-03-21T12:13:43.830Z,5.40
2023-03-21T12:16:18.840Z,4.97
2023-03-21T12:18:55.694Z,5.80
2023-03-21T12:21:27.276Z,8.07
2023-03-21T12:24:02.443Z,6.10
2023-03-21T12:26:31.053Z,5.00
2023-03-21T12:29:02.619Z,5.60
2023-03-21T12:31:35.107Z,6.87
2023-03-21T12:34:09.437Z,5.80
2023-03-21T12:36:43.405Z,5.40
2023-03-21T12:39:15.832Z,6.30
2023-03-21T12:41:44.572Z,6.13
2023-03-21T12:44:14.002Z,6.17
2023-03-21T12:46:43.950Z,6.53
2023-03-21T12:49:14.226Z,6.23
2023-03-21T12:51:44.813Z,6.43
2023-03-21T12:54:15.884Z,5.93
2023-03-21T12:56:48.334Z,5.70
2023-03-21T12:59:21.286Z,6.83
2023-03-21T13:01:49.335Z,6.00
2023-03-21T13:04:37.559Z,5.43
2023-03-21T13:07:08.578Z,5.40
2023-03-21T13:09:38.106Z,7.97
2023-03-21T13:12:09.247Z,5.93
2023-03-21T13:14:37.401Z,5.63
2023-03-21T13:17:07.301Z,6.10
2023-03-21T13:19:37.658Z,5.40
2023-03-21T13:22:09.461Z,6.63
2023-03-21T13:24:39.490Z,6.70
2023-03-21T13:27:07.518Z,5.30
2023-03-21T13:29:42.098Z,5.83
2023-03-21T13:32:10.665Z,5.83
2023-03-21T13:34:39.339Z,6.53
2023-03-21T13:37:11.484Z,5.30
2023-03-21T13:39:43.439Z,5.60
2023-03-21T13:42:17.857Z,5.90
2023-03-21T13:44:50.384Z,5.17
2023-03-21T13:47:28.948Z,5.37
2023-03-21T13:50:14.602Z,5.03
2023-03-21T13:52:43.090Z,5.20
2023-03-21T13:55:15.464Z,4.70
2023-03-21T13:57:42.714Z,4.03
2023-03-21T14:00:18.353Z,4.60
2023-03-21T14:02:53.537Z,5.87
2023-03-21T14:05:22.095Z,4.97
2023-03-21T14:07:54.723Z,4.10
2023-03-21T14:10:26.448Z,4.40
2023-03-21T14:12:53.939Z,4.83
2023-03-21T14:15:22.425Z,4.60
2023-03-21T14:17:50.819Z,4.67
2023-03-21T14:20:21.328Z,4.60
2023-03-21T14:22:49.124Z,4.33
2023-03-21T14:25:18.533Z,4.97
2023-03-21T14:27:47.549Z,4.90
2023-03-21T14:30:20.770Z,4.83
2023-03-21T14:32:48.105Z,4.20
2023-03-21T14:35:15.248Z,4.70
2023-03-21T14:37:45.435Z,4.57
2023-03-21T14:40:20.627Z,4.63
2023-03-21T14:42:48.841Z,5.23
2023-03-21T14:45:20.604Z,4.83
2023-03-21T14:47:57.928Z,4.00
2023-03-21T14:50:26.673Z,5.43
2023-03-21T14:52:53.908Z,5.30
2023-03-21T14:55:22.545Z,5.17
2023-03-21T14:57:49.671Z,4.10
2023-03-21T15:00:20.895Z,4.90
2023-03-21T15:02:48.109Z,4.33
2023-03-21T15:05:17.426Z,4.50
2023-03-21T15:07:52.884Z,4.60
2023-03-21T15:10:20.043Z,4.77
2023-03-21T15:12:52.212Z,4.27
2023-03-21T15:15:19.551Z,3.70
2023-03-21T15:17:46.797Z,4.70
2023-03-21T15:20:15.219Z,4.50
2023-03-21T15:22:44.273Z,4.27
2023-03-21T15:25:17.679Z,4.40
2023-03-21T15:27:44.899Z,3.80
2023-03-21T15:30:20.366Z,4.67
2023-03-21T15:32:48.631Z,4.57
2023-03-21T15:35:16.925Z,4.93
2023-03-21T15:37:44.057Z,4.90
2023-03-21T15:40:18.816Z,5.00
2023-03-21T15:42:45.888Z,5.23
2023-03-21T15:45:19.417Z,4.50
2023-03-21T15:47:55.327Z,4.20
2023-03-21T15:50:25.429Z,4.07
2023-03-21T15:52:52.896Z,4.70
2023-03-21T15:55:22.447Z,4.20
2023-03-21T15:57:49.645Z,4.73
2023-03-21T16:00:21.930Z,4.10
2023-03-21T16:02:49.885Z,4.10
2023-03-21T16:05:23.417Z,4.00
2023-03-21T16:07:50.590Z,4.10
2023-03-21T16:10:25.383Z,4.13
2023-03-21T16:12:52.537Z,4.00
2023-03-21T16:15:19.927Z,3.67
2023-03-21T16:17:49.611Z,4.27
2023-03-21T16:20:18.525Z,4.00
2023-03-21T16:22:47.033Z,4.17
2023-03-21T16:25:14.248Z,3.80
2023-03-21T16:27:41.552Z,4.40
2023-03-21T16:30:10.210Z,4.10
2023-03-21T16:32:38.306Z,4.80
2023-03-21T16:35:05.730Z,4.00
2023-03-21T16:37:33.028Z,3.70
2023-03-21T16:40:01.691Z,4.40
2023-03-21T16:42:28.972Z,3.80
2023-03-21T16:44:56.123Z,4.10
2023-03-21T16:47:23.353Z,5.20
2023-03-21T16:49:50.404Z,4.77
2023-03-21T16:52:17.735Z,4.60
2023-03-21T16:54:44.824Z,4.50
2023-03-21T16:57:19.554Z,4.20
2023-03-21T16:59:46.726Z,4.90
2023-03-21T17:02:14.475Z,4.43
2023-03-21T17:04:41.554Z,4.17
2023-03-21T17:07:10.483Z,4.20
2023-03-21T17:09:37.579Z,4.53
2023-03-21T17:12:06.400Z,4.47
2023-03-21T17:14:34.800Z,4.97
2023-03-21T17:17:01.904Z,4.93
2023-03-21T17:19:29.031Z,4.97
2023-03-21T17:21:56.168Z,4.40
2023-03-21T17:24:23.297Z,4.47
2023-03-21T17:26:50.405Z,4.63
2023-03-21T17:29:17.554Z,5.23
2023-03-21T17:31:45.966Z,5.40
2023-03-21T17:34:13.021Z,4.90
2023-03-21T17:36:41.067Z,4.43
2023-03-21T17:39:09.281Z,5.13
2023-03-21T17:41:36.517Z,4.67
2023-03-21T17:44:03.618Z,4.30
2023-03-21T17:46:34.508Z,4.70
2023-03-21T17:49:03.686Z,4.80
2023-03-21T17:51:30.784Z,4.93
2023-03-21T17:53:57.896Z,5.60
2023-03-21T17:56:26.148Z,4.97
2023-03-21T17:58:53.328Z,5.30
2023-03-21T18:01:20.424Z,6.10
2023-03-21T18:03:47.519Z,5.43
2023-03-21T18:06:17.401Z,5.63
2023-03-21T18:08:44.965Z,5.20
2023-03-21T18:11:12.272Z,5.40
2023-03-21T18:13:39.423Z,5.87
2023-03-21T18:16:06.998Z,5.40
2023-03-21T18:18:34.438Z,5.60
2023-03-21T18:21:01.651Z,5.20
2023-03-21T18:23:30.267Z,4.90
2023-03-21T18:25:57.388Z,5.60
2023-03-21T18:28:24.484Z,5.83
2023-03-21T18:33:39.711Z,3.93
2023-03-21T18:36:08.043Z,5.50
2023-03-21T18:38:37.192Z,4.83
2023-03-21T18:41:04.444Z,5.17
2023-03-21T18:46:18.798Z,5.50
2023-03-21T18:48:46.562Z,5.47
2023-03-21T18:51:13.780Z,5.43
2023-03-21T18:53:42.216Z,4.63
2023-03-21T18:56:11.520Z,4.80
2023-03-21T18:58:38.721Z,4.93
2023-03-21T19:01:05.824Z,5.10
2023-03-21T19:03:36.993Z,4.50
2023-03-21T19:06:05.437Z,4.47
2023-03-21T19:08:32.674Z,5.30
2023-03-21T19:11:04.368Z,4.80
2023-03-21T19:13:33.832Z,4.90
2023-03-21T19:16:02.403Z,4.80
2023-03-21T19:18:50.370Z,4.67
2023-03-21T19:21:17.288Z,4.63
2023-03-21T19:24:20.817Z,4.60
2023-03-21T19:26:32.833Z,5.30
2023-03-21T19:28:59.950Z,5.30
2023-03-21T19:31:27.184Z,5.53
2023-03-21T19:33:54.528Z,5.60
2023-03-21T19:36:23.203Z,5.00
2023-03-21T19:38:50.591Z,4.77
2023-03-21T19:41:17.923Z,5.63
2023-03-21T19:43:54.336Z,5.77
2023-03-21T19:46:22.543Z,6.03
2023-03-21T19:48:49.705Z,4.87
2023-03-21T19:51:32.770Z,5.70
2023-03-21T19:54:00.423Z,5.53
2023-03-21T19:56:27.969Z,4.20
2023-03-21T19:58:56.514Z,4.50
2023-03-21T20:01:24.047Z,5.67
2023-03-21T20:03:51.249Z,5.10
2023-03-21T20:06:18.453Z,4.80
2023-03-21T20:11:32.872Z,5.07
2023-03-21T20:14:02.087Z,3.70
2023-03-21T20:16:34.631Z,4.40
2023-03-21T20:19:02.737Z,5.77
2023-03-21T20:21:36.651Z,5.30
2023-03-21T20:24:11.465Z,4.90
2023-03-21T20:26:38.587Z,4.83
2023-03-21T20:29:55.001Z,4.13
2023-03-21T20:31:54.119Z,4.20
2023-03-21T20:34:21.415Z,4.07
2023-03-21T20:36:48.724Z,4.27
2023-03-21T20:39:15.907Z,4.70
2023-03-21T20:41:43.094Z,4.97
2023-03-21T20:44:42.175Z,4.53
2023-03-21T20:46:58.702Z,4.30
2023-03-21T20:49:25.842Z,4.50
2023-03-21T20:52:46.247Z,4.50
2023-03-21T20:54:40.047Z,4.13
2023-03-21T20:57:07.151Z,3.93
2023-03-21T20:59:35.713Z,3.77
2023-03-21T21:02:02.971Z,3.97
2023-03-21T21:04:48.277Z,4.00
2023-03-21T21:07:17.684Z,3.83
2023-03-21T21:09:45.316Z,4.00
2023-03-21T21:12:13.427Z,3.67
2023-03-21T21:14:42.665Z,4.83
2023-03-21T21:19:57.081Z,3.80
2023-03-21T21:22:24.164Z,3.70
2023-03-21T21:24:51.245Z,4.80
2023-03-21T21:27:18.395Z,4.40
2023-03-21T21:29:46.856Z,4.17
2023-03-21T21:32:13.998Z,3.93
2023-03-21T21:34:41.112Z,3.83
2023-03-21T21:37:08.211Z,4.00
2023-03-21T21:39:35.331Z,4.20
2023-03-21T21:42:02.409Z,4.20
2023-03-21T21:44:29.495Z,3.80
2023-03-21T21:46:57.960Z,4.60
2023-03-21T21:49:25.116Z,4.70
2023-03-21T21:51:52.168Z,4.20
2023-03-21T21:54:19.325Z,4.17
2023-03-21T21:56:46.438Z,4.00
2023-03-21T21:59:13.475Z,5.10
2023-03-21T22:01:40.562Z,4.47
2023-03-21T22:04:08.998Z,4.63
2023-03-21T22:06:36.104Z,4.10
2023-03-21T22:09:03.200Z,4.70
2023-03-21T22:11:30.288Z,5.13
2023-03-21T22:13:57.544Z,4.80
2023-03-21T22:16:24.714Z,4.70
2023-03-21T22:18:51.846Z,5.00
2023-03-21T22:21:20.299Z,4.37
2023-03-21T22:23:47.344Z,4.43
2023-03-21T22:26:14.722Z,4.40
2023-03-21T22:28:43.301Z,4.63
2023-03-21T22:31:11.578Z,4.73
2023-03-21T22:33:38.899Z,4.57
2023-03-21T22:36:06.250Z,4.53
2023-03-21T22:38:34.791Z,4.40
2023-03-21T22:41:03.346Z,5.10
2023-03-21T22:43:30.656Z,4.63
2023-03-21T22:45:57.756Z,4.73
2023-03-21T22:48:24.970Z,4.50
2023-03-21T22:50:52.054Z,5.40
2023-03-21T22:53:19.148Z,4.50
2023-03-21T22:55:47.569Z,5.03
2023-03-21T22:58:14.642Z,4.60
2023-03-21T23:00:41.728Z,4.73
2023-03-21T23:03:08.895Z,5.17
2023-03-21T23:05:38.938Z,4.87
2023-03-21T23:08:06.289Z,4.53
2023-03-21T23:10:33.412Z,4.97
2023-03-21T23:13:01.826Z,4.60
2023-03-21T23:15:28.915Z,5.17
2023-03-21T23:17:56.090Z,5.07
2023-03-21T23:20:23.231Z,4.30
2023-03-21T23:22:50.339Z,4.90
2023-03-21T23:25:17.523Z,5.70
2023-03-21T23:27:44.590Z,5.17
2023-03-21T23:30:13.291Z,5.10
2023-03-21T23:32:40.420Z,5.03
2023-03-21T23:35:08.208Z,4.30
2023-03-21T23:37:35.298Z,5.63
2023-03-21T23:40:02.491Z,4.40
2023-03-21T23:42:30.115Z,5.00
2023-03-21T23:44:57.360Z,5.57
2023-03-21T23:47:25.898Z,5.00
2023-03-21T23:49:52.985Z,5.20
2023-03-21T23:52:20.136Z,6.10
2023-03-21T23:54:47.250Z,5.37
2023-03-21T23:57:14.345Z,6.40
2023-03-21T23:59:41.439Z,5.90
